Time;durP1;ratioP1;P1;durP2;ratioP2;P2;SDS_P1;SDS_P2;PMS_P1;PMS_P2;Temp;Humidity;BMP_temperature;BMP_pressure;BME280_temperature;BME280_humidity;BME280_pressure;Samples;Min_cycle;Max_cycle;Signal;HPM_P1;HPM_P2
2022/01/13 00:00:16;;;;;;;33.83;16.70;;;;;;;-143.53;100.00;58366.03;2102593;28;20189;-63
2022/01/13 00:01:24;;;;;;;31.25;16.17;;;;;;;-143.53;100.00;58366.03;2102562;28;20225;-63
2022/01/13 00:02:30;;;;;;;35.20;15.10;;;;;;;-143.53;100.00;58366.03;2102262;28;20660;-62
2022/01/13 00:03:31;;;;;;;26.95;15.20;;;;;;;-143.53;100.00;58366.03;2101724;28;20253;-63
2022/01/13 00:04:33;;;;;;;26.65;14.07;;;;;;;-143.53;100.00;58366.03;2101969;28;20763;-63
2022/01/13 00:05:35;;;;;;;26.40;14.07;;;;;;;-143.53;100.00;58366.03;2103167;28;20546;-63
2022/01/13 00:06:37;;;;;;;25.17;13.27;;;;;;;-143.53;100.00;58366.03;2101919;28;20211;-62
2022/01/13 00:07:38;;;;;;;27.50;14.93;;;;;;;-143.53;100.00;58366.03;2103009;28;20197;-62
2022/01/13 00:08:40;;;;;;;30.02;13.60;;;;;;;-143.53;100.00;58366.03;2102311;28;20205;-62
2022/01/13 00:09:43;;;;;;;26.98;15.20;;;;;;;-143.53;100.00;58366.03;2101850;28;20224;-63
2022/01/13 00:10:45;;;;;;;28.80;14.70;;;;;;;-143.53;100.00;58366.03;2102787;28;20232;-62
2022/01/13 00:11:48;;;;;;;24.98;15.63;;;;;;;-143.53;100.00;58366.03;2102771;28;20206;-62
2022/01/13 00:12:57;;;;;;;27.98;15.45;;;;;;;-143.53;100.00;58366.03;2101971;28;20199;-62
2022/01/13 00:14:23;;;;;;;30.67;16.45;;;;;;;-143.53;100.00;58366.03;2102066;28;20560;-62
2022/01/13 00:15:38;;;;;;;23.33;13.88;;;;;;;-143.53;100.00;58366.03;2101899;28;20206;-62
2022/01/13 00:16:43;;;;;;;34.13;16.63;;;;;;;-143.53;100.00;58366.03;2101335;28;20827;-63
2022/01/13 00:17:57;;;;;;;26.50;15.70;;;;;;;-143.53;100.00;58366.03;2102514;28;20195;-62
2022/01/13 00:21:57;;;;;;;30.92;14.45;;;;;;;-143.53;100.00;58366.03;2101422;28;20242;-62
2022/01/13 00:24:18;;;;;;;29.35;14.75;;;;;;;-143.53;100.00;58366.03;2102043;28;20216;-63
2022/01/13 00:25:21;;;;;;;29.25;15.98;;;;;;;-143.53;100.00;58366.03;2102594;28;20206;-62
2022/01/13 00:26:25;;;;;;;30.55;15.48;;;;;;;-143.53;100.00;58366.03;2102754;28;20215;-62
2022/01/13 00:27:29;;;;;;;29.40;15.55;;;;;;;-143.53;100.00;58366.03;2102624;28;20283;-63
2022/01/13 00:28:30;;;;;;;35.38;15.23;;;;;;;-143.53;100.00;58366.03;2103046;28;20203;-63
2022/01/13 00:29:32;;;;;;;27.20;14.93;;;;;;;-143.53;100.00;58366.03;2102080;28;20219;-62
2022/01/13 00:30:33;;;;;;;29.48;16.35;;;;;;;-143.53;100.00;58366.03;2102041;28;20202;-62
2022/01/13 00:31:39;;;;;;;28.90;15.50;;;;;;;-143.53;100.00;58366.03;2101786;28;20197;-62
2022/01/13 00:32:42;;;;;;;27.33;15.00;;;;;;;-143.53;100.00;58366.03;2102097;28;20218;-63
2022/01/13 00:33:46;;;;;;;33.08;17.10;;;;;;;-143.53;100.00;58366.03;2102132;28;20232;-63
2022/01/13 00:34:47;;;;;;;37.55;17.23;;;;;;;-143.53;100.00;58366.03;2099921;28;20215;-62
2022/01/13 00:35:49;;;;;;;29.70;16.90;;;;;;;-143.53;100.00;58366.03;2102408;28;20195;-62
2022/01/13 00:36:50;;;;;;;31.00;17.70;;;;;;;-143.53;100.00;58366.03;2102908;28;20195;-62
2022/01/13 00:37:52;;;;;;;32.22;16.25;;;;;;;-143.53;100.00;58366.03;2102525;28;20218;-62
2022/01/13 00:38:54;;;;;;;36.83;17.90;;;;;;;-143.53;100.00;58366.03;2102560;28;20198;-62
2022/01/13 00:39:55;;;;;;;32.58;15.98;;;;;;;-143.53;100.00;58366.03;2102127;28;20275;-62
2022/01/13 00:40:57;;;;;;;29.48;14.73;;;;;;;-143.53;100.00;58366.03;2093288;28;20201;-63
2022/01/13 00:41:59;;;;;;;29.20;16.63;;;;;;;-143.53;100.00;58366.03;2092337;28;20222;-62
2022/01/13 00:43:00;;;;;;;39.20;17.23;;;;;;;-143.53;100.00;58366.03;2102129;28;20212;-63
2022/01/13 00:44:06;;;;;;;34.30;16.80;;;;;;;-143.53;100.00;58366.03;2102046;28;20201;-63
2022/01/13 00:45:13;;;;;;;31.38;17.63;;;;;;;-143.53;100.00;58366.03;2101582;28;20557;-63
2022/01/13 00:46:21;;;;;;;34.85;17.83;;;;;;;-143.53;100.00;58366.03;2102747;28;20200;-63
2022/01/13 00:47:22;;;;;;;38.15;18.27;;;;;;;-143.53;100.00;58366.03;2102696;28;20211;-63
2022/01/13 00:48:24;;;;;;;29.63;17.40;;;;;;;-143.53;100.00;58366.03;2102451;28;20200;-62
2022/01/13 00:49:26;;;;;;;70.88;18.23;;;;;;;-143.53;100.00;58366.03;2092835;28;20221;-63
2022/01/13 00:50:27;;;;;;;33.78;17.63;;;;;;;-143.53;100.00;58366.03;2093453;28;20200;-63
2022/01/13 00:51:29;;;;;;;37.50;17.90;;;;;;;-143.53;100.00;58366.03;2101506;28;20203;-63
2022/01/13 00:52:30;;;;;;;33.25;17.88;;;;;;;-143.53;100.00;58366.03;2102492;28;20654;-63
2022/01/13 00:53:32;;;;;;;37.88;19.30;;;;;;;-143.53;100.00;58366.03;2099642;28;20199;-63
2022/01/13 00:54:34;;;;;;;33.83;17.13;;;;;;;-143.53;100.00;58366.03;2101388;28;20255;-64
2022/01/13 00:56:55;;;;;;;30.58;16.42;;;;;;;-143.53;100.00;58366.03;2102470;28;20204;-63
2022/01/13 00:57:57;;;;;;;35.67;18.33;;;;;;;-143.53;100.00;58366.03;2101630;28;20192;-63
2022/01/13 00:59:00;;;;;;;32.30;18.15;;;;;;;-143.53;100.00;58366.03;2101637;28;20377;-63
2022/01/13 01:00:03;;;;;;;33.28;17.00;;;;;;;-143.53;100.00;58366.03;2101916;28;20214;-63
2022/01/13 01:01:06;;;;;;;35.10;17.15;;;;;;;-143.53;100.00;58366.03;2104018;28;20191;-62
2022/01/13 01:02:08;;;;;;;39.20;19.60;;;;;;;-143.53;100.00;58366.03;2102045;28;20653;-63
2022/01/13 01:03:10;;;;;;;36.60;17.60;;;;;;;-143.53;100.00;58366.03;2102009;28;20247;-62
2022/01/13 01:04:13;;;;;;;30.58;17.08;;;;;;;-143.53;100.00;58366.03;2101591;28;20262;-63
2022/01/13 01:05:14;;;;;;;32.67;17.88;;;;;;;-143.53;100.00;58366.03;2100582;28;20203;-63
2022/01/13 01:06:16;;;;;;;34.63;17.42;;;;;;;-143.53;100.00;58366.03;2102438;28;20237;-62
2022/01/13 01:07:18;;;;;;;28.73;15.93;;;;;;;-143.53;100.00;58366.03;2100738;28;20955;-62
2022/01/13 01:08:20;;;;;;;31.42;17.63;;;;;;;-143.53;100.00;58366.03;2101616;28;20196;-62
2022/01/13 01:09:46;;;;;;;37.22;18.70;;;;;;;-143.53;100.00;58366.03;2101173;28;20216;-63
2022/01/13 01:10:49;;;;;;;30.17;16.70;;;;;;;-143.53;100.00;58366.03;2100515;28;20203;-62
2022/01/13 01:11:52;;;;;;;33.50;17.13;;;;;;;-143.53;100.00;58366.03;2108204;28;20206;-63
2022/01/13 01:12:54;;;;;;;34.67;16.98;;;;;;;-143.53;100.00;58366.03;2109201;28;20586;-62
2022/01/13 01:13:58;;;;;;;33.58;16.75;;;;;;;-143.53;100.00;58366.03;2092457;28;20212;-62
2022/01/13 01:15:00;;;;;;;35.08;17.05;;;;;;;-143.53;100.00;58366.03;2093514;28;20205;-62
2022/01/13 01:16:07;;;;;;;33.65;18.23;;;;;;;-143.53;100.00;58366.03;2102319;28;20876;-62
2022/01/13 01:17:08;;;;;;;36.15;17.70;;;;;;;-143.53;100.00;58366.03;2101512;28;20677;-62
2022/01/13 01:18:25;;;;;;;38.55;18.65;;;;;;;-143.53;100.00;58366.03;2101553;28;20200;-62
2022/01/13 01:19:29;;;;;;;33.63;17.92;;;;;;;-143.53;100.00;58366.03;2100097;28;20749;-62
2022/01/13 01:20:45;;;;;;;33.85;18.13;;;;;;;-143.53;100.00;58366.03;2101306;28;20199;-62
2022/01/13 01:22:03;;;;;;;39.08;18.70;;;;;;;-143.53;100.00;58366.03;2102443;28;20199;-62
2022/01/13 01:23:14;;;;;;;32.88;16.60;;;;;;;-143.53;100.00;58366.03;2100162;28;20207;-62
2022/01/13 01:25:37;;;;;;;33.20;16.60;;;;;;;-143.53;100.00;58366.03;2102302;28;20219;-62
2022/01/13 01:26:49;;;;;;;31.90;17.13;;;;;;;-143.53;100.00;58366.03;2100900;28;20832;-63
2022/01/13 01:27:53;;;;;;;30.85;16.20;;;;;;;-143.53;100.00;58366.03;2101561;28;20205;-62
2022/01/13 01:30:09;;;;;;;38.55;18.42;;;;;;;-143.53;100.00;58366.03;2102356;28;20208;-62
2022/01/13 01:31:12;;;;;;;35.53;18.02;;;;;;;-143.53;100.00;58366.03;2101371;28;20184;-62
2022/01/13 01:32:15;;;;;;;34.47;18.02;;;;;;;-143.53;100.00;58366.03;2101702;28;20200;-62
2022/01/13 01:33:19;;;;;;;33.28;17.38;;;;;;;-143.53;100.00;58366.03;2100837;28;20215;-62
2022/01/13 01:35:28;;;;;;;38.88;19.05;;;;;;;-143.53;100.00;58366.03;2102321;28;20565;-62
2022/01/13 01:36:31;;;;;;;36.72;19.27;;;;;;;-143.53;100.00;58366.03;2092483;28;20197;-63
2022/01/13 01:37:33;;;;;;;47.28;19.80;;;;;;;-143.53;100.00;58366.03;2093186;28;20251;-62
2022/01/13 01:38:35;;;;;;;35.28;18.00;;;;;;;-143.53;100.00;58366.03;2100680;28;20200;-62
2022/01/13 01:39:36;;;;;;;35.13;18.00;;;;;;;-143.53;100.00;58366.03;2102034;28;20220;-62
2022/01/13 01:40:38;;;;;;;37.15;19.27;;;;;;;-143.53;100.00;58366.03;2102048;28;20660;-63
2022/01/13 01:41:45;;;;;;;36.95;19.65;;;;;;;-143.53;100.00;58366.03;2101877;28;20204;-62
2022/01/13 01:42:47;;;;;;;34.83;18.88;;;;;;;-143.53;100.00;58366.03;2101135;28;20198;-62
2022/01/13 01:43:51;;;;;;;38.00;19.30;;;;;;;-143.53;100.00;58366.03;2101666;28;20211;-62
2022/01/13 01:44:56;;;;;;;34.58;18.10;;;;;;;-143.53;100.00;58366.03;2101822;28;20258;-62
2022/01/13 01:45:59;;;;;;;34.33;16.42;;;;;;;-143.53;100.00;58366.03;2100406;28;20207;-62
2022/01/13 01:47:02;;;;;;;30.00;17.02;;;;;;;-143.53;100.00;58366.03;2101811;28;20284;-62
2022/01/13 01:48:04;;;;;;;34.13;18.08;;;;;;;-143.53;100.00;58366.03;2102038;28;20207;-62
2022/01/13 01:49:17;;;;;;;38.08;18.90;;;;;;;-143.53;100.00;58366.03;2101131;28;20196;-63
2022/01/13 01:50:21;;;;;;;34.40;17.73;;;;;;;-143.53;100.00;58366.03;2100775;28;20230;-63
2022/01/13 01:51:23;;;;;;;40.58;19.55;;;;;;;-143.53;100.00;58366.03;2099062;28;20207;-63
2022/01/13 01:52:26;;;;;;;33.13;18.40;;;;;;;-143.53;100.00;58366.03;2101263;28;20200;-62
2022/01/13 01:53:28;;;;;;;34.22;17.70;;;;;;;-143.53;100.00;58366.03;2101476;28;20207;-63
2022/01/13 01:54:29;;;;;;;39.47;19.67;;;;;;;-143.53;100.00;58366.03;2099221;28;20225;-63
2022/01/13 01:55:31;;;;;;;32.38;17.10;;;;;;;-143.53;100.00;58366.03;2101232;28;20191;-63
2022/01/13 01:56:33;;;;;;;43.17;18.77;;;;;;;-143.53;100.00;58366.03;2101324;28;20199;-63
2022/01/13 01:57:34;;;;;;;35.25;16.92;;;;;;;-143.53;100.00;58366.03;2101636;28;20196;-63
2022/01/13 01:58:38;;;;;;;36.28;17.60;;;;;;;-143.53;100.00;58366.03;2101570;28;20203;-63
2022/01/13 01:59:42;;;;;;;34.33;18.60;;;;;;;-143.53;100.00;58366.03;2101458;28;20227;-63
2022/01/13 02:00:44;;;;;;;39.88;19.00;;;;;;;-143.53;100.00;58366.03;2101544;28;20214;-64
2022/01/13 02:01:47;;;;;;;40.05;18.83;;;;;;;-143.53;100.00;58366.03;2101309;28;20208;-62
2022/01/13 02:02:49;;;;;;;34.58;19.15;;;;;;;-143.53;100.00;58366.03;2102103;28;20200;-63
2022/01/13 02:03:51;;;;;;;35.42;17.70;;;;;;;-143.53;100.00;58366.03;2101742;28;20244;-62
2022/01/13 02:04:53;;;;;;;36.22;19.20;;;;;;;-143.53;100.00;58366.03;2101387;28;20207;-62
2022/01/13 02:05:54;;;;;;;41.88;19.42;;;;;;;-143.53;100.00;58366.03;2100993;28;20653;-62
2022/01/13 02:07:01;;;;;;;32.10;17.55;;;;;;;-143.53;100.00;58366.03;2101382;28;20220;-62
2022/01/13 02:08:05;;;;;;;34.72;18.33;;;;;;;-143.53;100.00;58366.03;2100240;28;20195;-62
2022/01/13 02:09:09;;;;;;;38.17;18.10;;;;;;;-143.53;100.00;58366.03;2099012;28;20934;-62
2022/01/13 02:10:11;;;;;;;33.45;17.70;;;;;;;-143.53;100.00;58366.03;2101543;28;20755;-63
2022/01/13 02:11:14;;;;;;;36.65;18.85;;;;;;;-143.53;100.00;58366.03;2101908;28;20193;-63
2022/01/13 02:12:28;;;;;;;37.33;17.60;;;;;;;-143.53;100.00;58366.03;2102136;28;20189;-63
2022/01/13 02:13:33;;;;;;;41.42;17.48;;;;;;;-143.53;100.00;58366.03;2100927;28;20199;-62
2022/01/13 02:14:48;;;;;;;31.88;17.02;;;;;;;-143.53;100.00;58366.03;2101665;28;20223;-63
2022/01/13 02:16:06;;;;;;;38.38;19.00;;;;;;;-143.53;100.00;58366.03;2101607;28;20201;-63
2022/01/13 02:17:13;;;;;;;36.90;17.65;;;;;;;-143.53;100.00;58366.03;2100168;28;20233;-63
2022/01/13 02:18:15;;;;;;;35.40;17.83;;;;;;;-143.53;100.00;58366.03;2101384;28;20198;-63
2022/01/13 02:19:17;;;;;;;33.67;16.73;;;;;;;-143.53;100.00;58366.03;2100697;28;20217;-62
2022/01/13 02:20:19;;;;;;;35.22;18.17;;;;;;;-143.53;100.00;58366.03;2102254;28;20206;-63
2022/01/13 02:21:21;;;;;;;31.77;17.42;;;;;;;-143.53;100.00;58366.03;2101814;28;20192;-63
2022/01/13 02:22:24;;;;;;;31.00;17.40;;;;;;;-143.53;100.00;58366.03;2101412;28;20203;-63
2022/01/13 02:23:37;;;;;;;35.53;17.02;;;;;;;-143.53;100.00;58366.03;2100992;28;20235;-63
2022/01/13 02:24:39;;;;;;;29.95;15.57;;;;;;;-143.53;100.00;58366.03;2100881;28;20246;-63
2022/01/13 02:25:41;;;;;;;32.65;17.95;;;;;;;-143.53;100.00;58366.03;2101405;28;20197;-63
2022/01/13 02:26:42;;;;;;;30.42;16.73;;;;;;;-143.53;100.00;58366.03;2101300;28;20527;-63
2022/01/13 02:27:44;;;;;;;35.60;18.52;;;;;;;-143.53;100.00;58366.03;2101246;28;20197;-63
2022/01/13 02:28:45;;;;;;;36.78;18.80;;;;;;;-143.53;100.00;58366.03;2092408;28;20207;-63
2022/01/13 02:29:47;;;;;;;30.58;16.40;;;;;;;-143.53;100.00;58366.03;2091792;28;20242;-63
2022/01/13 02:30:50;;;;;;;32.63;18.77;;;;;;;-143.53;100.00;58366.03;2100699;28;20216;-63
2022/01/13 02:31:52;;;;;;;35.38;18.23;;;;;;;-143.53;100.00;58366.03;2101603;28;20412;-62
2022/01/13 02:32:53;;;;;;;33.17;19.17;;;;;;;-143.53;100.00;58366.03;2101286;28;20908;-62
2022/01/13 02:33:55;;;;;;;30.05;16.48;;;;;;;-143.53;100.00;58366.03;2100977;28;20187;-63
2022/01/13 02:34:56;;;;;;;36.33;17.75;;;;;;;-143.53;100.00;58366.03;2101694;28;20194;-63
2022/01/13 02:35:58;;;;;;;30.08;16.60;;;;;;;-143.53;100.00;58366.03;2101494;28;20538;-63
2022/01/13 02:37:01;;;;;;;30.27;16.92;;;;;;;-143.53;100.00;58366.03;2101665;28;20287;-62
2022/01/13 02:38:11;;;;;;;34.58;17.85;;;;;;;-143.53;100.00;58366.03;2100843;28;20227;-63
2022/01/13 02:39:12;;;;;;;30.50;16.35;;;;;;;-143.53;100.00;58366.03;2100980;28;20232;-62
2022/01/13 02:40:14;;;;;;;29.92;16.45;;;;;;;-143.53;100.00;58366.03;2101643;28;20211;-62
2022/01/13 02:41:16;;;;;;;30.35;18.35;;;;;;;-143.53;100.00;58366.03;2101407;28;20866;-62
2022/01/13 02:42:17;;;;;;;31.05;18.42;;;;;;;-143.53;100.00;58366.03;2101346;28;20191;-62
2022/01/13 02:43:19;;;;;;;33.00;16.77;;;;;;;-143.53;100.00;58366.03;2101177;28;20197;-62
2022/01/13 02:44:22;;;;;;;33.80;18.00;;;;;;;-143.53;100.00;58366.03;2100665;28;20224;-63
2022/01/13 02:45:32;;;;;;;30.42;15.95;;;;;;;-143.53;100.00;58366.03;2100886;28;20200;-62
2022/01/13 02:48:44;;;;;;;37.28;18.73;;;;;;;-143.53;100.00;58366.03;2100786;28;20202;-63
2022/01/13 02:49:46;;;;;;;33.38;17.55;;;;;;;-143.53;100.00;58366.03;2101018;28;20242;-63
2022/01/13 02:50:50;;;;;;;33.88;18.80;;;;;;;-143.53;100.00;58366.03;2100774;28;20201;-63
2022/01/13 02:51:53;;;;;;;28.35;17.33;;;;;;;-143.53;100.00;58366.03;2101658;28;20201;-63
2022/01/13 02:52:54;;;;;;;37.53;17.15;;;;;;;-143.53;100.00;58366.03;2101020;28;20202;-62
2022/01/13 02:53:56;;;;;;;35.10;17.55;;;;;;;-143.53;100.00;58366.03;2100004;28;20662;-63
2022/01/13 02:54:57;;;;;;;34.45;17.50;;;;;;;-143.53;100.00;58366.03;2100779;28;20193;-63
2022/01/13 02:56:04;;;;;;;34.20;18.95;;;;;;;-143.53;100.00;58366.03;2101440;28;20203;-62
2022/01/13 02:57:06;;;;;;;33.38;17.02;;;;;;;-143.53;100.00;58366.03;2100293;28;20237;-62
2022/01/13 02:58:13;;;;;;;32.42;16.77;;;;;;;-143.53;100.00;58366.03;2100729;28;20200;-63
2022/01/13 02:59:15;;;;;;;31.88;17.42;;;;;;;-143.53;100.00;58366.03;2101112;28;20232;-63
2022/01/13 03:00:17;;;;;;;33.70;17.63;;;;;;;-143.53;100.00;58366.03;2102212;28;20310;-63
2022/01/13 03:01:18;;;;;;;31.88;15.93;;;;;;;-143.53;100.00;58366.03;2100443;28;20208;-62
2022/01/13 03:02:23;;;;;;;30.88;17.20;;;;;;;-143.53;100.00;58366.03;2101239;28;20231;-62
2022/01/13 03:03:25;;;;;;;36.72;17.25;;;;;;;-143.53;100.00;58366.03;2099789;28;20202;-63
2022/01/13 03:04:26;;;;;;;31.08;16.67;;;;;;;-143.53;100.00;58366.03;2101195;28;20233;-63
2022/01/13 03:05:29;;;;;;;33.33;17.05;;;;;;;-143.53;100.00;58366.03;2100901;28;20655;-63
2022/01/13 03:06:34;;;;;;;34.42;17.55;;;;;;;-143.53;100.00;58366.03;2101431;28;20213;-63
2022/01/13 03:07:36;;;;;;;33.20;16.83;;;;;;;-143.53;100.00;58366.03;2100454;28;20200;-63
2022/01/13 03:08:41;;;;;;;29.10;16.13;;;;;;;-143.53;100.00;58366.03;2100061;28;20232;-63
2022/01/13 03:09:43;;;;;;;32.35;16.10;;;;;;;-143.53;100.00;58366.03;2093006;28;20228;-63
2022/01/13 03:10:45;;;;;;;29.95;17.15;;;;;;;-143.53;100.00;58366.03;2092671;28;20583;-63
2022/01/13 03:11:47;;;;;;;37.55;18.17;;;;;;;-143.53;100.00;58366.03;2093252;28;20206;-63
2022/01/13 03:12:49;;;;;;;31.58;15.65;;;;;;;-143.53;100.00;58366.03;2092607;28;20671;-63
2022/01/13 03:13:50;;;;;;;30.67;18.13;;;;;;;-143.53;100.00;58366.03;2093449;28;20840;-62
2022/01/13 03:14:52;;;;;;;34.42;17.02;;;;;;;-143.53;100.00;58366.03;2091912;28;20225;-62
2022/01/13 03:15:53;;;;;;;26.67;16.60;;;;;;;-143.53;100.00;58366.03;2093005;28;20669;-62
2022/01/13 03:16:55;;;;;;;35.25;17.65;;;;;;;-143.53;100.00;58366.03;2092780;28;20760;-63
2022/01/13 03:17:56;;;;;;;34.50;17.65;;;;;;;-143.53;100.00;58366.03;2093205;28;20197;-62
2022/01/13 03:18:58;;;;;;;33.75;17.45;;;;;;;-143.53;100.00;58366.03;2093035;28;20222;-63
2022/01/13 03:19:59;;;;;;;30.65;16.65;;;;;;;-143.53;100.00;58366.03;2092741;28;20238;-62
2022/01/13 03:21:01;;;;;;;27.65;15.98;;;;;;;-143.53;100.00;58366.03;2092974;28;20202;-62
2022/01/13 03:22:03;;;;;;;36.53;18.40;;;;;;;-143.53;100.00;58366.03;2092995;28;20549;-62
2022/01/13 03:23:05;;;;;;;28.55;17.20;;;;;;;-143.53;100.00;58366.03;2092806;28;20220;-62
2022/01/13 03:24:10;;;;;;;30.25;17.35;;;;;;;-143.53;100.00;58366.03;2092404;28;20201;-63
2022/01/13 03:25:13;;;;;;;32.78;15.80;;;;;;;-143.53;100.00;58366.03;2092525;28;20197;-63
2022/01/13 03:26:14;;;;;;;34.47;18.13;;;;;;;-143.53;100.00;58366.03;2092858;28;20200;-63
2022/01/13 03:27:20;;;;;;;36.35;18.10;;;;;;;-143.53;100.00;58366.03;2092738;28;20198;-63
2022/01/13 03:28:38;;;;;;;31.92;18.45;;;;;;;-143.53;100.00;58366.03;2092292;28;20683;-63
2022/01/13 03:29:39;;;;;;;29.90;16.02;;;;;;;-143.53;100.00;58366.03;2091490;28;20226;-63
2022/01/13 03:30:42;;;;;;;29.40;16.55;;;;;;;-143.53;100.00;58366.03;2092853;28;20251;-63
2022/01/13 03:31:45;;;;;;;30.60;16.48;;;;;;;-143.53;100.00;58366.03;2092945;28;20705;-63
2022/01/13 03:32:47;;;;;;;31.27;18.33;;;;;;;-143.53;100.00;58366.03;2092212;28;20289;-62
2022/01/13 03:33:50;;;;;;;37.95;17.48;;;;;;;-143.53;100.00;58366.03;2092395;28;20205;-63
2022/01/13 03:34:51;;;;;;;32.60;18.08;;;;;;;-143.53;100.00;58366.03;2089600;28;20200;-62
2022/01/13 03:35:54;;;;;;;31.30;17.77;;;;;;;-143.53;100.00;58366.03;2092258;28;20207;-63
2022/01/13 03:36:55;;;;;;;41.38;19.40;;;;;;;-143.53;100.00;58366.03;2092519;28;20198;-63
2022/01/13 03:37:58;;;;;;;35.03;17.83;;;;;;;-143.53;100.00;58366.03;2091962;28;20193;-62
2022/01/13 03:39:00;;;;;;;33.47;17.90;;;;;;;-143.53;100.00;58366.03;2090416;28;20209;-62
2022/01/13 03:40:03;;;;;;;40.17;17.73;;;;;;;-143.53;100.00;58366.03;2092249;28;20202;-63
2022/01/13 03:41:04;;;;;;;36.25;19.15;;;;;;;-143.53;100.00;58366.03;2092893;28;20224;-63
2022/01/13 03:42:06;;;;;;;41.20;18.75;;;;;;;-143.53;100.00;58366.03;2092815;28;20229;-63
2022/01/13 03:43:08;;;;;;;40.75;19.67;;;;;;;-143.53;100.00;58366.03;2093005;28;20804;-63
2022/01/13 03:44:17;;;;;;;34.90;19.85;;;;;;;-143.53;100.00;58366.03;2085999;28;20193;-63
2022/01/13 03:45:24;;;;;;;31.45;16.63;;;;;;;-143.53;100.00;58366.03;2092300;28;20200;-63
2022/01/13 03:53:28;;;;;;;30.00;15.98;;;;;;;-143.53;100.00;58366.03;2091277;28;20186;-63
2022/01/13 03:54:36;;;;;;;35.13;17.02;;;;;;;-143.53;100.00;58366.03;2091835;28;20228;-63
2022/01/13 03:55:40;;;;;;;26.90;14.82;;;;;;;-143.53;100.00;58366.03;2090280;28;20204;-63
2022/01/13 03:56:41;;;;;;;31.38;14.68;;;;;;;-143.53;100.00;58366.03;2092892;28;20193;-62
2022/01/13 03:58:11;;;;;;;29.85;15.80;;;;;;;-143.53;100.00;58366.03;2092616;28;20208;-63
2022/01/13 03:59:52;;;;;;;26.50;13.10;;;;;;;-143.53;100.00;58366.03;2091547;28;20227;-62
2022/01/13 04:01:32;;;;;;;27.20;13.27;;;;;;;-143.53;100.00;58366.03;2091769;28;20243;-62
2022/01/13 04:02:34;;;;;;;25.48;13.07;;;;;;;-143.53;100.00;58366.03;2091631;28;20274;-62
2022/01/13 04:03:36;;;;;;;21.83;13.10;;;;;;;-143.53;100.00;58366.03;2091652;28;20189;-63
2022/01/13 04:04:46;;;;;;;26.83;14.15;;;;;;;-143.53;100.00;58366.03;2091474;28;20219;-63
2022/01/13 04:06:08;;;;;;;24.60;13.95;;;;;;;-143.53;100.00;58366.03;2091965;28;20197;-63
2022/01/13 04:07:23;;;;;;;29.30;15.07;;;;;;;-143.53;100.00;58366.03;2092377;28;20679;-63
2022/01/13 04:08:24;;;;;;;27.98;14.98;;;;;;;-143.53;100.00;58366.03;2092574;28;20219;-63
2022/01/13 04:09:28;;;;;;;25.42;13.00;;;;;;;-143.53;100.00;58366.03;2092759;28;20229;-63
2022/01/13 04:10:45;;;;;;;21.30;12.50;;;;;;;-143.53;100.00;58366.03;2092836;28;20632;-63
2022/01/13 04:11:46;;;;;;;25.90;13.27;;;;;;;-143.53;100.00;58366.03;2093002;28;20197;-63
2022/01/13 04:12:48;;;;;;;24.73;12.98;;;;;;;-143.53;100.00;58366.03;2093482;28;20208;-63
2022/01/13 04:13:57;;;;;;;25.58;12.95;;;;;;;-143.53;100.00;58366.03;2092956;28;20200;-63
2022/01/13 04:15:01;;;;;;;22.88;11.82;;;;;;;-143.53;100.00;58366.03;2092476;28;20212;-63
2022/01/13 04:16:03;;;;;;;28.20;13.13;;;;;;;-143.53;100.00;58366.03;2092497;28;20197;-63
2022/01/13 04:17:05;;;;;;;22.95;12.80;;;;;;;-143.53;100.00;58366.03;2092753;28;20210;-63
2022/01/13 04:18:06;;;;;;;19.40;11.27;;;;;;;-143.53;100.00;58366.03;2092006;28;20573;-63
2022/01/13 04:19:08;;;;;;;26.15;12.43;;;;;;;-143.53;100.00;58366.03;2092739;28;20528;-63
2022/01/13 04:20:10;;;;;;;19.88;11.57;;;;;;;-143.53;100.00;58366.03;2092731;28;20233;-63
2022/01/13 04:21:12;;;;;;;20.60;12.05;;;;;;;-143.53;100.00;58366.03;2093059;28;20204;-63
2022/01/13 04:22:16;;;;;;;20.08;12.00;;;;;;;-143.53;100.00;58366.03;2092574;28;20189;-63
2022/01/13 04:23:18;;;;;;;24.27;13.07;;;;;;;-143.53;100.00;58366.03;2092560;28;20205;-63
2022/01/13 04:24:19;;;;;;;19.38;10.88;;;;;;;-143.53;100.00;58366.03;2091748;28;20228;-63
2022/01/13 04:25:22;;;;;;;19.73;11.57;;;;;;;-143.53;100.00;58366.03;2092439;28;20255;-64
2022/01/13 04:26:30;;;;;;;21.00;11.45;;;;;;;-143.53;100.00;58366.03;2090661;28;20425;-63
2022/01/13 04:27:37;;;;;;;22.67;11.90;;;;;;;-143.53;100.00;58366.03;2092034;28;20545;-63
2022/01/13 04:28:40;;;;;;;21.30;12.07;;;;;;;-143.53;100.00;58366.03;2092120;28;20197;-63
2022/01/13 04:29:45;;;;;;;20.80;11.55;;;;;;;-143.53;100.00;58366.03;2092381;28;20707;-63
2022/01/13 04:30:49;;;;;;;19.30;10.85;;;;;;;-143.53;100.00;58366.03;2093410;28;20201;-63
2022/01/13 04:31:51;;;;;;;22.15;11.55;;;;;;;-143.53;100.00;58366.03;2092074;28;20201;-63
2022/01/13 04:32:52;;;;;;;22.65;12.60;;;;;;;-143.53;100.00;58366.03;2092233;28;20208;-63
2022/01/13 04:33:54;;;;;;;20.73;11.93;;;;;;;-143.53;100.00;58366.03;2092021;28;20200;-63
2022/01/13 04:34:55;;;;;;;21.15;12.05;;;;;;;-143.53;100.00;58366.03;2090837;28;20201;-63
2022/01/13 04:35:59;;;;;;;21.08;11.25;;;;;;;-143.53;100.00;58366.03;2092996;28;20198;-63
2022/01/13 04:37:01;;;;;;;16.98;10.55;;;;;;;-143.53;100.00;58366.03;2092250;28;20196;-63
2022/01/13 04:38:03;;;;;;;18.23;11.25;;;;;;;-143.53;100.00;58366.03;2091744;28;20193;-63
2022/01/13 04:39:06;;;;;;;24.38;12.68;;;;;;;-143.53;100.00;58366.03;2092063;28;20213;-63
2022/01/13 04:40:11;;;;;;;23.02;11.57;;;;;;;-143.53;100.00;58366.03;2091818;28;20201;-63
2022/01/13 04:41:15;;;;;;;21.63;12.25;;;;;;;-143.53;100.00;58366.03;2093779;28;20195;-63
2022/01/13 04:42:16;;;;;;;19.10;10.75;;;;;;;-143.53;100.00;58366.03;2092744;28;20198;-63
2022/01/13 04:43:17;;;;;;;20.83;11.02;;;;;;;-143.53;100.00;58366.03;2094002;28;20198;-63
2022/01/13 04:44:21;;;;;;;23.83;11.90;;;;;;;-143.53;100.00;58366.03;2093670;28;20667;-63
2022/01/13 04:45:24;;;;;;;19.63;11.23;;;;;;;-143.53;100.00;58366.03;2093991;28;20220;-63
2022/01/13 04:46:26;;;;;;;21.80;11.40;;;;;;;-143.53;100.00;58366.03;2093996;28;20198;-62
2022/01/13 04:47:27;;;;;;;24.67;12.13;;;;;;;-143.53;100.00;58366.03;2094061;28;20201;-64
2022/01/13 04:48:29;;;;;;;25.42;13.13;;;;;;;-143.53;100.00;58366.03;2094034;28;20197;-63
2022/01/13 04:49:30;;;;;;;21.10;12.10;;;;;;;-143.53;100.00;58366.03;2095171;28;20580;-63
2022/01/13 04:50:32;;;;;;;22.00;12.57;;;;;;;-143.53;100.00;58366.03;2093760;28;20198;-63
2022/01/13 04:51:35;;;;;;;20.92;11.75;;;;;;;-143.53;100.00;58366.03;2094503;28;20199;-63
2022/01/13 04:52:36;;;;;;;20.80;11.20;;;;;;;-143.53;100.00;58366.03;2094023;28;20231;-63
2022/01/13 04:53:38;;;;;;;20.67;11.77;;;;;;;-143.53;100.00;58366.03;2093816;28;20203;-63
2022/01/13 04:54:39;;;;;;;19.58;11.05;;;;;;;-143.53;100.00;58366.03;2093545;28;20561;-63
2022/01/13 04:55:49;;;;;;;21.52;12.07;;;;;;;-143.53;100.00;58366.03;2093800;28;20197;-63
2022/01/13 04:57:53;;;;;;;21.50;11.30;;;;;;;-143.53;100.00;58366.03;2091735;28;20203;-63
2022/01/13 04:58:56;;;;;;;24.63;11.20;;;;;;;-143.53;100.00;58366.03;2093748;28;20642;-63
2022/01/13 04:59:57;;;;;;;19.92;10.75;;;;;;;-143.53;100.00;58366.03;2094061;28;20206;-63
2022/01/13 05:00:58;;;;;;;27.27;13.10;;;;;;;-143.53;100.00;58366.03;2095415;28;20202;-59
2022/01/13 05:02:00;;;;;;;20.95;9.95;;;;;;;-143.53;100.00;58366.03;2093614;28;20201;-59
2022/01/13 05:03:02;;;;;;;26.00;11.43;;;;;;;-143.53;100.00;58366.03;2094166;28;20202;-58
2022/01/13 05:04:05;;;;;;;20.50;11.15;;;;;;;-143.53;100.00;58366.03;2093807;28;20229;-58